createdAt,value
2018-07-04T00:00:37.604Z,2.10
2018-07-04T00:05:52.054Z,1.73
2018-07-04T00:11:06.464Z,1.93
2018-07-04T00:16:20.943Z,2.03
2018-07-04T00:21:35.464Z,2.10
2018-07-04T00:26:49.839Z,2.20
2018-07-04T00:32:04.256Z,2.13
2018-07-04T00:37:18.659Z,1.87
2018-07-04T00:42:34.024Z,2.17
2018-07-04T00:47:48.587Z,2.07
2018-07-04T00:53:02.902Z,2.00
2018-07-04T00:58:17.362Z,1.90
2018-07-04T01:03:31.794Z,2.10
2018-07-04T01:08:46.202Z,1.93
2018-07-04T01:14:00.777Z,2.00
2018-07-04T01:19:15.241Z,2.03
2018-07-04T01:24:29.768Z,2.03
2018-07-04T01:29:44.222Z,2.23
2018-07-04T01:34:58.775Z,1.87
2018-07-04T01:40:13.146Z,2.27
2018-07-04T01:45:27.579Z,2.00
2018-07-04T01:50:42.184Z,2.57
2018-07-04T01:55:56.557Z,2.20
2018-07-04T02:01:10.966Z,2.03
2018-07-04T02:06:25.381Z,2.50
2018-07-04T02:11:39.834Z,2.27
2018-07-04T02:16:54.297Z,2.20
2018-07-04T02:22:08.663Z,2.07
2018-07-04T02:27:23.164Z,2.27
2018-07-04T02:32:37.563Z,2.30
2018-07-04T02:37:51.995Z,2.10
2018-07-04T02:43:06.559Z,2.10
2018-07-04T02:48:21.099Z,1.90
2018-07-04T02:53:35.666Z,2.40
2018-07-04T02:58:50.018Z,2.30
2018-07-04T03:04:04.342Z,2.10
2018-07-04T03:09:18.952Z,2.70
2018-07-04T03:14:33.382Z,2.53
2018-07-04T03:19:47.855Z,2.43
2018-07-04T03:25:02.280Z,2.70
2018-07-04T03:30:16.715Z,2.60
2018-07-04T03:35:31.159Z,2.80
2018-07-04T03:40:45.602Z,2.30
2018-07-04T03:46:00.074Z,2.40
2018-07-04T03:51:14.549Z,2.80
2018-07-04T03:56:29.005Z,2.80
2018-07-04T04:01:43.541Z,2.83
2018-07-04T04:06:57.968Z,2.90
2018-07-04T04:12:12.447Z,3.37
2018-07-04T04:17:26.907Z,3.40
2018-07-04T04:22:41.353Z,2.90
2018-07-04T04:27:55.852Z,2.93
2018-07-04T04:33:10.122Z,2.50
2018-07-04T04:38:24.535Z,2.40
2018-07-04T04:43:38.943Z,2.00
2018-07-04T04:48:53.409Z,2.77
2018-07-04T04:54:07.769Z,2.80
2018-07-04T04:59:22.643Z,2.60
2018-07-04T05:04:37.078Z,2.47
2018-07-04T05:09:51.613Z,2.58
2018-07-04T05:15:05.974Z,2.47
2018-07-04T05:20:20.440Z,2.50
2018-07-04T05:25:34.823Z,2.85
2018-07-04T05:30:49.155Z,3.30
2018-07-04T05:36:03.571Z,3.02
2018-07-04T05:41:18.016Z,2.87
2018-07-04T05:46:32.322Z,2.40
2018-07-04T05:51:46.888Z,2.87
2018-07-04T05:57:01.094Z,2.85
2018-07-04T06:02:15.428Z,2.45
2018-07-04T06:07:29.702Z,2.50
2018-07-04T06:12:44.131Z,2.47
2018-07-04T06:17:59.106Z,2.10
2018-07-04T06:23:13.504Z,2.55
2018-07-04T06:28:28.010Z,2.50
2018-07-04T06:33:42.521Z,2.10
2018-07-04T06:38:44.416Z,2.37
2018-07-04T06:43:46.431Z,2.20
2018-07-04T06:48:48.341Z,2.40
2018-07-04T06:53:50.286Z,2.30
2018-07-04T06:58:52.216Z,2.45
2018-07-04T07:04:06.497Z,3.02
2018-07-04T07:09:20.944Z,2.70
2018-07-04T07:14:35.400Z,2.83
2018-07-04T07:19:49.762Z,3.00
2018-07-04T07:25:04.187Z,2.40
2018-07-04T07:30:18.932Z,2.72
2018-07-04T07:35:33.335Z,2.85
2018-07-04T07:40:47.515Z,2.67
2018-07-04T07:46:01.922Z,2.22
2018-07-04T07:51:16.322Z,2.00
2018-07-04T07:56:30.819Z,2.30
2018-07-04T08:01:45.095Z,1.95
2018-07-04T08:06:59.631Z,1.90
2018-07-04T08:12:13.983Z,1.95
2018-07-04T08:17:28.415Z,1.98
2018-07-04T08:22:42.817Z,2.12
2018-07-04T08:27:57.236Z,2.02
2018-07-04T08:33:11.485Z,1.90
2018-07-04T08:38:25.903Z,1.72
2018-07-04T08:43:40.362Z,1.60
2018-07-04T08:48:54.706Z,1.92
2018-07-04T08:54:09.161Z,1.70
2018-07-04T08:59:23.574Z,2.33
2018-07-04T09:04:37.941Z,1.87
2018-07-04T09:09:52.270Z,1.80
2018-07-04T09:15:06.707Z,1.85
2018-07-04T09:20:21.097Z,2.00
2018-07-04T09:25:35.673Z,1.95
2018-07-04T09:30:50.083Z,1.90
2018-07-04T09:36:04.467Z,1.80
2018-07-04T09:41:18.843Z,2.20
2018-07-04T09:46:33.251Z,1.92
2018-07-04T09:51:47.777Z,1.70
2018-07-04T09:57:02.057Z,1.70
2018-07-04T10:02:16.495Z,1.60
2018-07-04T10:07:30.926Z,1.70
2018-07-04T10:12:45.369Z,1.70
2018-07-04T10:17:59.831Z,1.57
2018-07-04T10:23:14.273Z,1.50
2018-07-04T10:28:28.649Z,1.50
2018-07-04T10:33:43.047Z,1.77
2018-07-04T10:38:57.496Z,1.50
2018-07-04T10:44:12.009Z,1.70
2018-07-04T10:49:26.384Z,2.10
2018-07-04T10:54:40.736Z,1.60
2018-07-04T10:59:55.066Z,1.70
2018-07-04T11:05:09.530Z,1.60
2018-07-04T11:10:23.890Z,1.65
2018-07-04T11:15:38.245Z,1.55
2018-07-04T11:20:52.642Z,1.30
2018-07-04T11:26:06.897Z,1.35
2018-07-04T11:31:21.376Z,1.30
2018-07-04T11:36:35.916Z,1.40
2018-07-04T11:41:50.185Z,1.60
2018-07-04T11:46:52.133Z,1.62
2018-07-04T11:51:54.083Z,1.40
2018-07-04T11:56:56.095Z,1.50
2018-07-04T12:01:58.003Z,1.40
2018-07-04T12:07:00.794Z,1.30
2018-07-04T12:12:02.760Z,1.57
2018-07-04T12:17:04.747Z,1.50
2018-07-04T12:22:07.126Z,1.60
2018-07-04T12:27:09.042Z,1.50
2018-07-04T12:32:10.985Z,1.50
2018-07-04T12:37:12.951Z,1.60
2018-07-04T12:42:15.027Z,1.25
2018-07-04T12:47:16.994Z,1.40
2018-07-04T12:52:18.882Z,1.25
2018-07-04T12:57:33.256Z,1.20
2018-07-04T13:02:47.626Z,1.60
2018-07-04T13:08:02.127Z,1.40
2018-07-04T13:13:16.586Z,1.27
2018-07-04T13:18:31.236Z,1.40
2018-07-04T13:23:45.874Z,1.42
2018-07-04T13:29:00.102Z,1.35
2018-07-04T13:34:14.548Z,1.50
2018-07-04T13:39:29.062Z,1.50
2018-07-04T13:44:43.390Z,1.55
2018-07-04T13:49:57.969Z,1.60
2018-07-04T13:55:12.322Z,1.40
2018-07-04T14:00:26.828Z,1.30
2018-07-04T14:05:41.324Z,1.40
2018-07-04T14:10:55.644Z,1.50
2018-07-04T14:16:10.165Z,1.72
2018-07-04T14:21:24.610Z,1.55
2018-07-04T14:26:39.202Z,1.62
2018-07-04T14:31:53.560Z,1.32
2018-07-04T14:37:07.927Z,1.60
2018-07-04T14:42:22.310Z,1.50
2018-07-04T14:47:36.693Z,1.52
2018-07-04T14:52:51.209Z,1.70
2018-07-04T14:58:05.419Z,1.50
2018-07-04T15:03:19.831Z,1.20
2018-07-04T15:08:34.274Z,1.40
2018-07-04T15:13:48.593Z,1.80
2018-07-04T15:19:03.111Z,1.30
2018-07-04T15:24:17.405Z,1.70
2018-07-04T15:29:31.799Z,1.45
2018-07-04T15:34:46.164Z,1.77
2018-07-04T15:40:00.655Z,1.57
2018-07-04T15:45:14.991Z,1.77
2018-07-04T15:50:29.516Z,1.50
2018-07-04T15:55:43.956Z,1.62
2018-07-04T16:00:58.388Z,1.65
2018-07-04T16:06:13.007Z,1.60
2018-07-04T16:11:27.284Z,1.72
2018-07-04T16:16:41.713Z,2.27
2018-07-04T16:21:56.119Z,1.60
2018-07-04T16:27:10.517Z,1.92
2018-07-04T16:32:25.042Z,1.42
2018-07-04T16:37:39.468Z,1.62
2018-07-04T16:42:53.793Z,1.55
2018-07-04T16:48:08.181Z,1.50
2018-07-04T16:53:22.654Z,5.22
2018-07-04T16:58:37.046Z,1.72
2018-07-04T17:03:51.558Z,1.40
2018-07-04T17:09:05.927Z,1.40
2018-07-04T17:14:20.358Z,1.20
2018-07-04T17:19:34.750Z,1.35
2018-07-04T17:24:49.100Z,1.50
2018-07-04T17:30:03.514Z,1.55
2018-07-04T17:35:17.938Z,1.47
2018-07-04T17:40:32.426Z,1.72
2018-07-04T17:45:46.878Z,1.40
2018-07-04T17:51:01.500Z,1.70
2018-07-04T17:56:15.949Z,1.70
2018-07-04T18:01:30.598Z,1.92
2018-07-04T18:06:45.059Z,1.70
2018-07-04T18:11:59.596Z,2.00
2018-07-04T18:17:13.911Z,1.80
2018-07-04T18:22:28.263Z,1.77
2018-07-04T18:27:42.682Z,2.27
2018-07-04T18:32:57.085Z,1.80
2018-07-04T18:38:11.486Z,2.33
2018-07-04T18:43:25.922Z,2.12
2018-07-04T18:48:40.259Z,1.77
2018-07-04T18:53:54.707Z,1.90
2018-07-04T18:59:09.360Z,2.27
2018-07-04T19:04:23.773Z,1.83
2018-07-04T19:09:38.315Z,1.80
2018-07-04T19:14:53.863Z,1.60
2018-07-04T19:20:08.657Z,2.10
2018-07-04T19:25:22.970Z,1.67
2018-07-04T19:30:37.379Z,1.80
2018-07-04T19:35:51.769Z,2.10
2018-07-04T19:41:06.165Z,1.97
2018-07-04T19:46:20.899Z,1.90
2018-07-04T19:51:36.332Z,1.80
2018-07-04T19:56:50.661Z,2.33
2018-07-04T20:02:04.911Z,2.10
2018-07-04T20:07:20.071Z,1.80
2018-07-04T20:12:36.356Z,2.27
2018-07-04T20:17:54.471Z,2.60
2018-07-04T20:23:10.716Z,2.90
2018-07-04T20:28:26.713Z,2.63
2018-07-04T20:33:42.301Z,5.83
2018-07-04T20:38:57.458Z,5.13
2018-07-04T20:44:11.853Z,3.30
2018-07-04T20:49:26.449Z,3.57
2018-07-04T20:54:40.819Z,3.40
2018-07-04T20:59:55.318Z,4.10
2018-07-04T21:05:09.578Z,5.83
2018-07-04T21:10:23.962Z,3.40
2018-07-04T21:15:38.405Z,3.50
2018-07-04T21:20:52.813Z,2.97
2018-07-04T21:26:07.541Z,2.70
2018-07-04T21:31:21.901Z,3.70
2018-07-04T21:36:36.315Z,3.43
2018-07-04T21:41:50.595Z,2.93
2018-07-04T21:47:04.997Z,3.07
2018-07-04T21:52:19.637Z,4.00
2018-07-04T21:57:34.171Z,3.10
2018-07-04T22:02:48.537Z,2.93
2018-07-04T22:08:03.039Z,2.90
2018-07-04T22:13:17.504Z,2.87
2018-07-04T22:18:31.960Z,3.10
2018-07-04T22:23:46.336Z,3.30
2018-07-04T22:29:00.756Z,3.10
2018-07-04T22:34:15.289Z,3.27
2018-07-04T22:39:29.863Z,2.90
2018-07-04T22:44:44.364Z,3.10
2018-07-04T22:49:58.836Z,2.90
2018-07-04T22:55:13.170Z,2.87
2018-07-04T23:00:27.549Z,2.93
2018-07-04T23:05:41.919Z,3.07
2018-07-04T23:10:56.393Z,3.30
2018-07-04T23:16:10.789Z,2.57
2018-07-04T23:21:25.210Z,2.90
2018-07-04T23:26:39.594Z,3.37
2018-07-04T23:31:54.002Z,3.00
2018-07-04T23:37:08.519Z,3.03
2018-07-04T23:42:22.862Z,3.00
2018-07-04T23:47:37.270Z,3.33
2018-07-04T23:52:51.694Z,3.23
2018-07-04T23:58:05.979Z,3.20
